METAR Data
IDs: Format: Raw Decoded Include TAF

Data at: 1346 UTC 10 Aug 2022

KSJC 101253Z 00000KT 10SM FEW012 FEW070 16/12 A3004 RMK AO2 SLP173 T01610122
KSJC 101153Z AUTO 00000KT 10SM CLR 16/12 A3003 RMK AO2 SLP169 T01610122 10189 20161 55000
KSJC 101053Z AUTO 23004KT 10SM CLR 17/12 A3003 RMK AO2 SLP168 T01670122
KSJC 100953Z AUTO 35004KT 10SM CLR 18/14 A3003 RMK AO2 SLP168 T01780139
KSJC 100853Z AUTO 34003KT 10SM CLR 18/14 A3003 RMK AO2 SLP170 T01780139 50001
KSJC 100753Z AUTO 01003KT 10SM CLR 18/14 A3004 RMK AO2 SLP170 T01830144 402670167
KSJC 100653Z 36005KT 10SM FEW012 18/14 A3003 RMK AO2 SLP170 T01830144
KSJC 100553Z 35007KT 10SM FEW012 19/14 A3003 RMK AO2 SLP169 T01890139 10256 20189 53016
KSJC 100453Z 36006KT 10SM FEW008 19/14 A3002 RMK AO2 SLP165 T01940144
KSJC 100353Z 35011KT 10SM FEW008 20/14 A3000 RMK AO2 SLP156 T02000144
KSJC 100253Z 33013KT 10SM FEW008 21/14 A2999 RMK AO2 SLP153 T02110139 53009
KSJC 100153Z 35016G24KT 10SM FEW009 22/13 A2996 RMK AO2 SLP146 T02220133
KSJC 100053Z 33016G25KT 10SM FEW050 24/13 A2996 RMK AO2 SLP146 T02440128
KSJC 092353Z 33015KT 10SM FEW055 26/12 A2996 RMK AO2 SLP144 T02560122 10267 20217 55008
KSJC 092253Z 32013KT 10SM FEW060 27/12 A2996 RMK AO2 SLP143 T02670117
KSJC 092153Z 34012G18KT 10SM FEW060 27/12 A2997 RMK AO2 SLP146 T02670122
KSJC 092053Z 33010KT 10SM FEW080 26/13 A2998 RMK AO2 SLP151 T02610133 58009
KSJC 091953Z 32010G16KT 10SM FEW100 26/13 A2999 RMK AO2 SLP155 T02560133
KSJC 091853Z 01006KT 10SM FEW100 24/13 A3000 RMK AO2 SLP159 T02390128
KSJC 091753Z 35006KT 10SM FEW100 22/13 A3001 RMK AO2 SLP161 T02220128 10228 20167 58001
KSJC 091653Z 01004KT 10SM FEW035 21/13 A3001 RMK AO2 SLP162 T02060128
KSJC 091553Z 35003KT 10SM SCT020 19/13 A3002 RMK AO2 SLP164 T01890128
KSJC 091453Z 31004KT 10SM FEW014 SCT020 18/14 A3001 RMK AO2 SLP162 T01780139 53011
KSJC 091406Z 32008KT 10SM SCT018 17/13 A3000 RMK AO2 T01720128
KSJC 091353Z COR 33007KT 10SM BKN018 17/13 A3000 RMK AO2 SLP159 T01720133
KSJC 091253Z 32006KT 10SM OVC019 18/13 A2999 RMK AO2 SLP153 T01780133
KSJC 091153Z AUTO 31005KT 10SM BKN018 17/13 A2998 RMK AO2 SLP151 T01720133 10183 20167 55000
KSJC 091053Z AUTO 33005KT 10SM BKN015 17/14 A2998 RMK AO2 SLP150 T01670139
KSJC 091051Z AUTO 33005KT 10SM BKN015 17/14 A2998 RMK AO2
KSJC 090953Z AUTO 32006KT 10SM CLR 17/13 A2998 RMK AO2 SLP151 T01670133
KSJC 090853Z AUTO 36007KT 10SM FEW016 18/14 A2998 RMK AO2 SLP151 T01780139 58003
KSJC 090753Z AUTO 33008KT 10SM CLR 18/14 A2998 RMK AO2 SLP153 T01780139 402670156
KSJC 090653Z 02004KT 10SM FEW017 FEW030 18/14 A2999 RMK AO2 SLP153 T01830144
KSJC 090553Z 35008KT 10SM FEW020 18/14 A2999 RMK AO2 SLP154 T01830139 10250 20183 51010
KSJC 090453Z 35009KT 10SM FEW020 19/14 A2999 RMK AO2 SLP153 T01890139
KSJC 090353Z 35012KT 10SM FEW055 19/14 A2997 RMK AO2 SLP149 T01940139
KSJC 090253Z 35014G21KT 10SM FEW065 21/13 A2996 RMK AO2 SLP144 T02060133 53002
KSJC 090153Z 35011KT 10SM FEW065 23/13 A2995 RMK AO2 SLP141 T02280128